createdAt,value
2023-03-28T00:00:53.325Z,89.97
2023-03-28T00:01:53.307Z,90.06
2023-03-28T00:02:53.331Z,89.69
2023-03-28T00:03:53.341Z,89.87
2023-03-28T00:04:53.248Z,90.25
2023-03-28T00:05:53.273Z,90.16
2023-03-28T00:06:53.211Z,89.69
2023-03-28T00:07:53.186Z,90.16
2023-03-28T00:08:53.181Z,90.16
2023-03-28T00:09:53.149Z,90.44
2023-03-28T00:10:53.130Z,90.35
2023-03-28T00:11:53.112Z,90.16
2023-03-28T00:12:53.103Z,90.82
2023-03-28T00:13:53.088Z,90.44
2023-03-28T00:14:53.054Z,90.25
2023-03-28T00:15:53.088Z,90.25
2023-03-28T00:16:53.032Z,90.06
2023-03-28T00:17:53.008Z,90.35
2023-03-28T00:18:52.975Z,90.35
2023-03-28T00:19:52.958Z,90.16
2023-03-28T00:20:52.936Z,90.73
2023-03-28T00:21:52.933Z,90.44
2023-03-28T00:22:52.923Z,90.35
2023-03-28T00:23:52.876Z,89.97
2023-03-28T00:24:52.877Z,90.44
2023-03-28T00:25:53.005Z,90.25
2023-03-28T00:26:52.964Z,90.16
2023-03-28T00:27:53.159Z,89.69
2023-03-28T00:28:52.783Z,89.69
2023-03-28T00:29:52.757Z,90.16
2023-03-28T00:30:52.797Z,90.16
2023-03-28T00:31:52.722Z,90.16
2023-03-28T00:32:52.758Z,89.69
2023-03-28T00:33:52.692Z,89.78
2023-03-28T00:34:52.661Z,90.16
2023-03-28T00:35:52.704Z,90.25
2023-03-28T00:36:52.619Z,90.16
2023-03-28T00:37:52.599Z,90.16
2023-03-28T00:38:52.594Z,90.35
2023-03-28T00:39:52.576Z,90.25
2023-03-28T00:40:52.565Z,90.35
2023-03-28T00:41:52.595Z,89.97
2023-03-28T00:42:52.805Z,90.35
2023-03-28T00:43:52.510Z,90.35
2023-03-28T00:44:52.478Z,90.06
2023-03-28T00:46:06.331Z,90.16
2023-03-28T00:46:52.599Z,90.06
2023-03-28T00:47:52.424Z,90.06
2023-03-28T00:48:52.382Z,90.91
2023-03-28T00:49:52.362Z,90.63
2023-03-28T00:50:52.341Z,90.73
2023-03-28T00:51:52.324Z,90.91
2023-03-28T00:52:52.303Z,90.63
2023-03-28T00:53:52.283Z,90.73
2023-03-28T00:54:52.265Z,90.25
2023-03-28T00:55:52.253Z,90.63
2023-03-28T00:56:52.315Z,90.82
2023-03-28T00:57:52.211Z,90.25
2023-03-28T00:58:52.183Z,90.54
2023-03-28T00:59:52.168Z,90.73
2023-03-28T01:00:52.185Z,90.63
2023-03-28T01:01:52.143Z,90.54
2023-03-28T01:02:52.184Z,90.06
2023-03-28T01:03:52.119Z,90.25
2023-03-28T01:04:52.062Z,90.25
2023-03-28T01:05:52.042Z,90.73
2023-03-28T01:06:52.020Z,90.73
2023-03-28T01:07:52.009Z,90.63
2023-03-28T01:08:51.984Z,90.63
2023-03-28T01:09:51.965Z,90.54
2023-03-28T01:10:51.952Z,90.63
2023-03-28T01:11:51.933Z,90.73
2023-03-28T01:12:51.904Z,90.73
2023-03-28T01:13:51.896Z,90.35
2023-03-28T01:14:51.872Z,90.73
2023-03-28T01:15:51.904Z,90.44
2023-03-28T01:16:51.830Z,90.73
2023-03-28T01:17:51.867Z,90.54
2023-03-28T01:18:51.787Z,90.73
2023-03-28T01:19:51.766Z,90.73
2023-03-28T01:20:51.749Z,90.54
2023-03-28T01:21:51.720Z,90.16
2023-03-28T01:22:56.551Z,90.91
2023-03-28T01:23:51.701Z,90.54
2023-03-28T01:24:51.673Z,90.25
2023-03-28T01:25:51.638Z,90.82
2023-03-28T01:26:51.622Z,90.73
2023-03-28T01:27:51.603Z,90.73
2023-03-28T01:28:51.587Z,90.73
2023-03-28T01:29:51.562Z,90.91
2023-03-28T01:30:51.539Z,90.82
2023-03-28T01:31:51.602Z,90.91
2023-03-28T01:32:51.533Z,90.73
2023-03-28T01:33:51.481Z,90.82
2023-03-28T01:34:51.467Z,90.54
2023-03-28T01:35:51.470Z,90.44
2023-03-28T01:36:51.422Z,90.82
2023-03-28T01:37:51.399Z,90.54
2023-03-28T01:38:51.379Z,90.63
2023-03-28T01:39:51.361Z,90.54
2023-03-28T01:40:51.341Z,90.82
2023-03-28T01:41:51.321Z,90.54
2023-03-28T01:42:51.312Z,90.63
2023-03-28T01:43:51.285Z,90.35
2023-03-28T01:44:51.259Z,90.35
2023-03-28T01:45:51.287Z,90.25
2023-03-28T01:46:51.221Z,90.16
2023-03-28T01:47:51.213Z,90.82
2023-03-28T01:48:51.200Z,90.25
2023-03-28T01:49:51.167Z,90.25
2023-03-28T01:50:51.144Z,90.35
2023-03-28T01:51:51.125Z,90.54
2023-03-28T01:52:51.126Z,90.73
2023-03-28T01:53:51.085Z,90.82
2023-03-28T01:54:51.059Z,90.44
2023-03-28T01:55:51.049Z,90.49
2023-03-28T01:56:51.130Z,90.82
2023-03-28T01:57:51.034Z,90.87
2023-03-28T01:58:50.979Z,90.68
2023-03-28T01:59:50.965Z,90.68
2023-03-28T02:00:50.976Z,90.49
2023-03-28T02:01:50.926Z,90.77
2023-03-28T02:02:50.992Z,90.49
2023-03-28T02:03:50.880Z,90.59
2023-03-28T02:04:50.862Z,90.77
2023-03-28T02:05:50.838Z,90.68
2023-03-28T02:06:50.836Z,90.40
2023-03-28T02:07:50.803Z,90.49
2023-03-28T02:08:50.778Z,90.30
2023-03-28T02:09:50.764Z,90.30
2023-03-28T02:10:50.743Z,90.49
2023-03-28T02:11:50.723Z,90.49
2023-03-28T02:12:50.702Z,90.59
2023-03-28T02:13:50.680Z,90.49
2023-03-28T02:14:50.665Z,90.40
2023-03-28T02:15:50.644Z,90.49
2023-03-28T02:16:50.709Z,90.77
2023-03-28T02:17:50.670Z,90.49
2023-03-28T02:18:50.587Z,90.68
2023-03-28T02:19:50.590Z,90.96
2023-03-28T02:20:50.547Z,90.30
2023-03-28T02:21:50.527Z,90.49
2023-03-28T02:22:50.511Z,90.68
2023-03-28T02:23:50.499Z,90.68
2023-03-28T02:24:50.513Z,90.87
2023-03-28T02:25:50.461Z,90.49
2023-03-28T02:26:50.425Z,90.59
2023-03-28T02:27:50.414Z,90.49
2023-03-28T02:28:50.395Z,90.40
2023-03-28T02:29:50.374Z,90.21
2023-03-28T02:30:50.349Z,90.30
2023-03-28T02:31:50.385Z,90.40
2023-03-28T02:32:50.423Z,90.49
2023-03-28T02:33:50.293Z,90.68
2023-03-28T02:34:50.265Z,90.96
2023-03-28T02:35:50.261Z,90.68
2023-03-28T02:36:50.232Z,90.87
2023-03-28T02:37:50.214Z,90.40
2023-03-28T02:38:50.215Z,90.11
2023-03-28T02:39:50.172Z,90.77
2023-03-28T02:40:50.178Z,90.59
2023-03-28T02:41:50.127Z,91.15
2023-03-28T02:42:50.108Z,90.49
2023-03-28T02:43:50.090Z,90.21
2023-03-28T02:44:50.069Z,91.15
2023-03-28T02:45:50.082Z,90.40
2023-03-28T02:46:50.046Z,90.49
2023-03-28T02:47:50.035Z,90.59
2023-03-28T02:48:49.985Z,90.11
2023-03-28T02:49:50.978Z,90.68
2023-03-28T02:50:49.947Z,91.25
2023-03-28T02:51:49.929Z,90.59
2023-03-28T02:52:49.912Z,90.40
2023-03-28T02:53:49.887Z,90.49
2023-03-28T02:54:49.861Z,90.87
2023-03-28T02:55:49.846Z,90.49
2023-03-28T02:56:49.855Z,90.49
2023-03-28T02:57:49.806Z,90.96
2023-03-28T02:58:49.786Z,91.06
2023-03-28T02:59:49.767Z,90.87
2023-03-28T03:00:49.744Z,90.87
2023-03-28T03:01:49.757Z,91.15
2023-03-28T03:02:49.739Z,90.87
2023-03-28T03:03:49.743Z,90.49
2023-03-28T03:04:49.659Z,90.87
2023-03-28T03:05:49.644Z,90.96
2023-03-28T03:06:49.623Z,90.96
2023-03-28T03:07:49.645Z,91.15
2023-03-28T03:08:49.622Z,90.87
2023-03-28T03:09:49.562Z,90.96
2023-03-28T03:10:49.535Z,91.06
2023-03-28T03:11:49.520Z,90.87
2023-03-28T03:12:49.505Z,91.06
2023-03-28T03:13:49.487Z,91.15
2023-03-28T03:14:49.462Z,90.96
2023-03-28T03:15:49.523Z,91.34
2023-03-28T03:16:49.419Z,91.34
2023-03-28T03:17:49.487Z,90.87
2023-03-28T03:18:49.379Z,91.06
2023-03-28T03:19:49.355Z,90.96
2023-03-28T03:20:49.340Z,90.87
2023-03-28T03:21:49.313Z,91.15
2023-03-28T03:22:49.292Z,90.96
2023-03-28T03:23:49.271Z,91.06
2023-03-28T03:24:49.254Z,91.06
2023-03-28T03:25:49.234Z,91.06
2023-03-28T03:26:49.208Z,90.87
2023-03-28T03:27:49.206Z,91.06
2023-03-28T03:28:49.169Z,91.15
2023-03-28T03:29:49.159Z,90.87
2023-03-28T03:30:49.122Z,90.77
2023-03-28T03:31:49.200Z,90.96
2023-03-28T03:32:49.171Z,91.06
2023-03-28T03:33:49.067Z,90.87
2023-03-28T03:34:49.050Z,91.06
2023-03-28T03:35:49.050Z,90.96
2023-03-28T03:36:49.003Z,90.96
2023-03-28T03:37:49.033Z,90.87
2023-03-28T03:38:48.965Z,91.06
2023-03-28T03:39:48.946Z,90.96
2023-03-28T03:40:48.925Z,90.87
2023-03-28T03:41:48.905Z,90.87
2023-03-28T03:42:57.876Z,90.87
2023-03-28T03:44:53.498Z,90.87
2023-03-28T03:45:53.171Z,91.06
2023-03-28T03:47:57.893Z,90.92
2023-03-28T03:48:58.108Z,90.82
2023-03-28T03:51:02.852Z,90.64
2023-03-28T03:52:01.894Z,90.92
2023-03-28T03:53:54.758Z,91.01
2023-03-28T03:54:54.727Z,91.11
2023-03-28T09:19:02.806Z,36.76
2023-03-28T09:20:02.410Z,36.11
2023-03-28T09:22:15.076Z,34.86
2023-03-28T09:23:08.689Z,34.31
2023-03-28T09:25:12.918Z,33.45
2023-03-28T09:26:13.226Z,32.68
2023-03-28T09:27:12.302Z,32.75
2023-03-28T09:28:12.815Z,31.98
2023-03-28T09:29:12.299Z,31.41
2023-03-28T09:30:12.319Z,31.06
2023-03-28T09:31:12.178Z,30.40
2023-03-28T09:32:12.836Z,30.65
2023-03-28T09:33:12.824Z,31.98
2023-03-28T09:34:11.819Z,32.54
2023-03-28T09:35:11.808Z,33.00
2023-03-28T09:36:11.821Z,33.21
2023-03-28T09:37:11.807Z,33.61
2023-03-28T09:38:11.809Z,32.94
2023-03-28T09:39:11.794Z,32.97
2023-03-28T09:40:11.790Z,32.72
2023-03-28T09:41:11.798Z,31.77
2023-03-28T09:42:11.778Z,31.13
2023-03-28T09:43:11.786Z,30.36
2023-03-28T09:44:11.776Z,29.90
2023-03-28T09:45:11.809Z,29.47
2023-03-28T09:46:20.504Z,30.52
2023-03-28T14:37:19.077Z,43.27
2023-03-28T14:38:19.051Z,43.37
2023-03-28T14:39:19.036Z,43.37
2023-03-28T14:40:19.018Z,43.46
2023-03-28T14:41:19.001Z,42.89
2023-03-28T14:42:18.989Z,42.80
2023-03-28T14:43:18.978Z,42.89
2023-03-28T14:44:18.977Z,42.80
2023-03-28T14:45:18.949Z,43.35
2023-03-28T14:46:18.975Z,43.25
2023-03-28T14:47:18.910Z,43.16
2023-03-28T14:48:18.901Z,43.16
2023-03-28T14:49:18.885Z,43.73
2023-03-28T14:50:18.871Z,43.44
2023-03-28T14:51:18.852Z,43.44
2023-03-28T14:52:18.837Z,43.44
2023-03-28T14:53:18.834Z,43.35
2023-03-28T14:54:18.809Z,43.25
2023-03-28T14:55:18.804Z,43.35
2023-03-28T14:56:18.780Z,43.46
2023-03-28T14:57:18.792Z,43.08
2023-03-28T14:58:18.768Z,43.18
2023-03-28T14:59:18.732Z,43.18
2023-03-28T15:00:18.720Z,42.60
2023-03-28T15:01:18.709Z,42.82
2023-03-28T15:02:18.717Z,42.91
2023-03-28T15:03:18.773Z,42.24
2023-03-28T15:04:18.663Z,42.53
2023-03-28T15:05:18.644Z,42.53
2023-03-28T15:06:18.640Z,42.53
2023-03-28T15:07:18.632Z,42.82
2023-03-28T15:08:18.598Z,42.63
2023-03-28T15:09:18.607Z,42.72
2023-03-28T15:10:18.571Z,42.72
2023-03-28T15:11:18.558Z,42.89
2023-03-28T15:12:18.542Z,42.99
2023-03-28T15:13:19.056Z,43.18
2023-03-28T15:14:18.512Z,43.56
2023-03-28T15:15:18.501Z,43.37
2023-03-28T15:16:18.589Z,43.27
2023-03-28T15:17:18.463Z,43.08
2023-03-28T15:18:18.448Z,43.18
2023-03-28T15:19:18.435Z,43.18
2023-03-28T15:20:18.420Z,43.94
2023-03-28T15:21:18.402Z,43.82
2023-03-28T15:22:18.446Z,44.39
2023-03-28T15:23:18.371Z,43.91
2023-03-28T15:24:18.355Z,44.11
2023-03-28T15:25:18.350Z,44.11
2023-03-28T15:26:18.322Z,44.30
2023-03-28T15:27:18.311Z,44.20
2023-03-28T15:28:18.295Z,44.49
2023-03-28T15:29:18.296Z,44.18
2023-03-28T15:30:18.267Z,44.30
2023-03-28T15:31:18.287Z,44.49
2023-03-28T15:32:18.241Z,45.04
2023-03-28T15:33:18.237Z,45.04
2023-03-28T15:34:18.208Z,44.46
2023-03-28T15:35:18.196Z,44.66
2023-03-28T15:36:18.193Z,44.85
2023-03-28T15:37:18.165Z,44.85
2023-03-28T15:38:18.378Z,44.66
2023-03-28T15:39:18.129Z,44.94
2023-03-28T15:40:18.116Z,45.23
2023-03-28T15:41:18.106Z,45.14
2023-03-28T15:42:18.086Z,44.85
2023-03-28T15:43:18.069Z,45.59
2023-03-28T15:44:18.053Z,45.21
2023-03-28T15:45:18.037Z,45.11
2023-03-28T15:46:18.046Z,45.21
2023-03-28T15:47:19.116Z,45.49
2023-03-28T15:48:18.003Z,45.30
2023-03-28T15:49:17.977Z,45.40
2023-03-28T15:50:17.979Z,45.49
2023-03-28T15:51:17.950Z,46.15
2023-03-28T15:52:17.928Z,45.87
2023-03-28T15:53:17.912Z,45.87
2023-03-28T15:54:30.153Z,45.87
2023-03-28T15:55:17.879Z,45.87
2023-03-28T15:56:17.871Z,45.66
2023-03-28T15:57:17.920Z,45.66
2023-03-28T15:58:17.840Z,45.85
2023-03-28T15:59:17.823Z,46.33
2023-03-28T16:00:17.810Z,46.23
2023-03-28T16:01:17.863Z,46.14
2023-03-28T16:02:17.780Z,46.14
2023-03-28T16:03:17.829Z,46.33
2023-03-28T16:04:17.777Z,46.33
2023-03-28T16:05:17.729Z,46.33
2023-03-28T16:06:30.850Z,46.42
2023-03-28T16:07:17.705Z,46.33
2023-03-28T16:08:17.708Z,46.88
2023-03-28T16:09:17.672Z,46.68
2023-03-28T16:10:17.659Z,46.78
2023-03-28T16:11:17.644Z,47.25
2023-03-28T16:12:17.632Z,46.97
2023-03-28T16:13:17.624Z,46.97
2023-03-28T16:14:17.636Z,46.97
2023-03-28T16:15:17.579Z,46.97
2023-03-28T16:16:18.852Z,46.88
2023-03-28T16:17:17.553Z,46.78
2023-03-28T16:18:17.537Z,47.16
2023-03-28T16:19:17.523Z,47.16
2023-03-28T16:20:17.521Z,47.34
2023-03-28T16:21:17.490Z,47.25
2023-03-28T16:22:17.473Z,46.97
2023-03-28T16:23:17.466Z,47.16
2023-03-28T16:24:17.447Z,46.80
2023-03-28T16:25:17.444Z,46.89
2023-03-28T16:26:17.429Z,46.42
2023-03-28T16:27:17.395Z,46.23
2023-03-28T16:28:17.383Z,46.14
2023-03-28T16:29:17.363Z,45.95
2023-03-28T16:30:17.348Z,46.35
2023-03-28T16:31:17.363Z,46.35
2023-03-28T16:32:17.320Z,46.15
2023-03-28T16:33:17.335Z,46.15
2023-03-28T16:34:17.284Z,46.04
2023-03-28T16:35:17.271Z,46.51
2023-03-28T16:36:17.279Z,46.04
2023-03-28T16:37:17.236Z,46.23
2023-03-28T16:38:17.219Z,46.04
2023-03-28T16:39:17.252Z,46.51
2023-03-28T16:40:17.187Z,46.23
2023-03-28T16:41:17.172Z,46.61
2023-03-28T16:42:17.153Z,46.51
2023-03-28T16:43:17.138Z,46.70
2023-03-28T16:44:17.129Z,46.70
2023-03-28T16:45:17.105Z,47.09
2023-03-28T16:46:17.251Z,47.18
2023-03-28T16:47:17.074Z,47.09
2023-03-28T16:48:17.056Z,46.70
2023-03-28T16:49:17.044Z,46.89
2023-03-28T16:50:24.884Z,46.97
2023-03-28T16:52:22.112Z,47.54
2023-03-28T16:53:22.170Z,47.34
2023-03-28T16:54:21.985Z,47.63
2023-03-28T16:55:21.774Z,47.16
2023-03-28T16:56:22.120Z,47.92
2023-03-28T16:57:21.676Z,47.52
2023-03-28T16:58:21.616Z,48.08
2023-03-28T16:59:21.594Z,48.08
2023-03-28T17:00:21.583Z,48.56
2023-03-28T17:01:21.626Z,48.27
2023-03-28T17:02:21.690Z,48.37
2023-03-28T17:03:21.628Z,48.37
2023-03-28T17:04:21.517Z,48.46
2023-03-28T17:05:21.506Z,48.37
2023-03-28T17:06:21.495Z,48.37
2023-03-28T17:07:21.468Z,48.46
2023-03-28T17:08:21.461Z,48.27
2023-03-28T17:09:21.439Z,48.46
2023-03-28T17:10:21.424Z,48.56
2023-03-28T17:11:21.406Z,48.56
2023-03-28T17:12:21.411Z,48.85
2023-03-28T17:13:21.385Z,48.82
2023-03-28T17:14:21.360Z,48.91
2023-03-28T17:15:21.345Z,48.91
2023-03-28T17:16:21.347Z,49.20
2023-03-28T17:17:21.330Z,49.01
2023-03-28T17:18:21.303Z,48.91
2023-03-28T17:19:21.286Z,48.91
2023-03-28T17:20:21.266Z,49.29
2023-03-28T17:21:21.248Z,49.20
2023-03-28T17:22:21.235Z,49.10
2023-03-28T17:23:21.214Z,49.58
2023-03-28T17:24:21.203Z,49.96
2023-03-28T17:25:21.197Z,49.68
2023-03-28T17:26:21.169Z,49.39
2023-03-28T17:27:21.161Z,49.77
2023-03-28T17:28:21.143Z,49.74
2023-03-28T17:29:21.128Z,49.65
2023-03-28T17:30:21.108Z,49.55
2023-03-28T17:31:21.137Z,49.74
2023-03-28T17:32:21.085Z,49.55
2023-03-28T17:33:21.091Z,49.74
2023-03-28T17:34:21.048Z,49.74
2023-03-28T17:35:21.026Z,50.12
2023-03-28T17:36:21.917Z,50.03
2023-03-28T17:37:20.991Z,49.84
2023-03-28T17:38:20.974Z,49.84
2023-03-28T17:39:20.959Z,49.84
2023-03-28T17:40:20.939Z,49.84
2023-03-28T17:41:20.928Z,50.12
2023-03-28T17:42:20.963Z,50.03
2023-03-28T17:43:20.893Z,50.12
2023-03-28T17:44:20.875Z,50.22
2023-03-28T17:45:20.864Z,50.12
2023-03-28T17:46:20.865Z,50.22
2023-03-28T17:47:20.830Z,50.22
2023-03-28T17:48:20.815Z,50.67
2023-03-28T17:49:20.794Z,50.67
2023-03-28T17:50:20.778Z,50.76
2023-03-28T17:51:20.790Z,50.41
2023-03-28T17:52:20.745Z,50.76
2023-03-28T17:53:20.727Z,50.51
2023-03-28T17:54:20.720Z,50.70
2023-03-28T17:55:20.711Z,50.79
2023-03-28T17:56:20.804Z,50.70
2023-03-28T17:57:20.723Z,50.60
2023-03-28T17:58:20.653Z,50.60
2023-03-28T17:59:20.638Z,50.22
2023-03-28T18:00:20.616Z,50.22
2023-03-28T18:01:20.641Z,50.60
2023-03-28T18:02:20.660Z,50.70
2023-03-28T18:03:20.676Z,50.79
2023-03-28T18:04:20.567Z,50.79
2023-03-28T18:05:20.798Z,50.70
2023-03-28T18:06:21.485Z,50.51
2023-03-28T18:07:20.509Z,50.79
2023-03-28T18:08:20.492Z,50.79
2023-03-28T18:09:20.503Z,50.79
2023-03-28T18:10:20.496Z,50.79
2023-03-28T18:11:20.449Z,50.51
2023-03-28T18:12:20.416Z,50.60
2023-03-28T18:13:20.403Z,50.41
2023-03-28T18:14:20.385Z,50.31
2023-03-28T18:15:20.368Z,50.31
2023-03-28T18:16:20.410Z,50.70
2023-03-28T18:17:20.337Z,50.89
2023-03-28T18:18:20.316Z,50.60
2023-03-28T18:19:20.300Z,50.89
2023-03-28T18:20:22.308Z,50.79
2023-03-28T18:21:20.284Z,50.98
2023-03-28T18:22:20.253Z,50.79
2023-03-28T18:23:20.240Z,50.70
2023-03-28T18:24:20.221Z,50.98
2023-03-28T18:25:20.234Z,50.89
2023-03-28T18:26:21.006Z,50.89
2023-03-28T18:27:20.164Z,50.79
2023-03-28T18:28:20.142Z,50.98
2023-03-28T18:29:20.135Z,50.70
2023-03-28T18:30:20.133Z,50.70
2023-03-28T18:31:20.288Z,51.07
2023-03-28T18:32:20.080Z,51.64
2023-03-28T18:33:20.070Z,51.26
2023-03-28T18:34:20.053Z,51.55
2023-03-28T18:35:20.058Z,51.36
2023-03-28T18:36:20.084Z,51.55
2023-03-28T18:37:20.004Z,51.74
2023-03-28T18:38:19.995Z,51.45
2023-03-28T18:39:19.972Z,51.45
2023-03-28T18:40:19.995Z,51.45
2023-03-28T18:41:19.940Z,51.55
2023-03-28T18:42:19.925Z,51.55
2023-03-28T18:43:19.921Z,51.64
2023-03-28T18:44:19.887Z,51.36
2023-03-28T18:45:19.874Z,51.36
2023-03-28T18:46:19.928Z,51.36
2023-03-28T18:47:19.846Z,51.36
2023-03-28T18:48:19.815Z,51.36
2023-03-28T18:49:19.815Z,51.36
2023-03-28T18:50:19.787Z,51.45
2023-03-28T18:51:19.778Z,51.26
2023-03-28T18:52:19.773Z,51.45
2023-03-28T18:53:19.765Z,51.26
2023-03-28T18:54:19.719Z,51.36
2023-03-28T18:55:19.782Z,51.36
2023-03-28T18:56:19.683Z,51.64
2023-03-28T18:57:19.737Z,51.36
2023-03-28T18:58:19.650Z,51.64
2023-03-28T18:59:19.634Z,51.36
2023-03-28T19:00:19.650Z,51.64
2023-03-28T19:01:19.649Z,51.74
2023-03-28T19:02:19.623Z,52.02
2023-03-28T19:03:19.692Z,51.83
2023-03-28T19:04:19.719Z,51.93
2023-03-28T19:05:19.562Z,51.83
2023-03-28T19:06:19.517Z,51.93
2023-03-28T19:07:19.517Z,51.93
2023-03-28T19:08:19.494Z,51.55
2023-03-28T19:09:19.473Z,51.64
2023-03-28T19:10:19.448Z,51.83
2023-03-28T19:11:19.440Z,51.64
2023-03-28T19:12:19.419Z,51.83
2023-03-28T19:13:19.425Z,52.02
2023-03-28T19:14:19.388Z,52.50
2023-03-28T19:15:19.376Z,52.40
2023-03-28T19:16:19.543Z,52.22
2023-03-28T19:17:19.364Z,52.02
2023-03-28T19:18:19.341Z,52.02
2023-03-28T19:19:19.306Z,52.12
2023-03-28T19:20:19.293Z,52.31
2023-03-28T19:21:19.274Z,52.12
2023-03-28T19:22:19.261Z,52.12
2023-03-28T19:23:19.248Z,52.02
2023-03-28T19:24:19.223Z,52.40
2023-03-28T19:25:19.206Z,52.31
2023-03-28T19:26:19.182Z,52.40
2023-03-28T19:27:19.184Z,52.50
2023-03-28T19:28:19.208Z,52.50
2023-03-28T19:29:19.148Z,52.40
2023-03-28T19:30:19.121Z,52.50
2023-03-28T19:31:19.144Z,52.40
2023-03-28T19:32:19.083Z,52.97
2023-03-28T19:33:19.079Z,52.97
2023-03-28T19:34:19.054Z,52.78
2023-03-28T19:35:19.044Z,52.78
2023-03-28T19:36:19.075Z,52.59
2023-03-28T19:37:19.016Z,52.69
2023-03-28T19:38:19.005Z,52.78
2023-03-28T19:39:18.974Z,52.78
2023-03-28T19:40:18.979Z,52.69
2023-03-28T19:41:18.937Z,52.78
2023-03-28T19:42:18.919Z,52.78
2023-03-28T19:43:18.906Z,52.97
2023-03-28T19:44:18.903Z,52.97
2023-03-28T19:45:18.873Z,53.07
2023-03-28T19:46:18.931Z,52.87
2023-03-28T19:47:18.838Z,52.78
2023-03-28T19:48:18.837Z,52.69
2023-03-28T19:49:18.809Z,52.78
2023-03-28T19:50:18.798Z,52.59
2023-03-28T19:51:18.776Z,52.87
2023-03-28T19:52:18.775Z,52.78
2023-03-28T19:53:18.788Z,53.07
2023-03-28T19:54:18.718Z,53.07
2023-03-28T19:55:18.719Z,53.35
2023-03-28T19:56:18.698Z,53.26
2023-03-28T19:57:18.742Z,53.26
2023-03-28T19:58:18.661Z,52.97
2023-03-28T19:59:18.639Z,53.16
2023-03-28T20:00:18.654Z,52.97
2023-03-28T20:01:18.650Z,52.87
2023-03-28T20:02:18.592Z,52.97
2023-03-28T20:03:18.592Z,52.97
2023-03-28T20:04:18.586Z,53.16
2023-03-28T20:05:18.551Z,53.45
2023-03-28T20:06:18.543Z,53.26
2023-03-28T20:07:18.508Z,53.35
2023-03-28T20:08:18.502Z,53.26
2023-03-28T20:09:18.486Z,53.26
2023-03-28T20:10:18.464Z,53.16
2023-03-28T20:11:18.450Z,53.54
2023-03-28T20:12:18.442Z,53.64
2023-03-28T20:13:18.424Z,53.45
2023-03-28T20:14:18.388Z,53.45
2023-03-28T20:15:18.373Z,53.92
2023-03-28T20:16:18.377Z,54.02
2023-03-28T20:17:18.345Z,54.11
2023-03-28T20:18:18.324Z,54.02
2023-03-28T20:19:18.365Z,53.64
2023-03-28T20:20:18.295Z,54.11
2023-03-28T20:21:18.272Z,54.11
2023-03-28T20:22:18.264Z,53.64
2023-03-28T20:23:18.270Z,53.64
2023-03-28T20:24:18.221Z,54.11
2023-03-28T20:25:18.211Z,54.02
2023-03-28T20:26:18.322Z,53.92
2023-03-28T20:27:18.174Z,53.73
2023-03-28T20:28:18.156Z,53.92
2023-03-28T20:29:18.138Z,53.83
2023-03-28T20:30:18.129Z,53.83
2023-03-28T20:31:18.178Z,54.11
2023-03-28T20:32:18.098Z,54.21
2023-03-28T20:33:18.091Z,54.49
2023-03-28T20:34:18.099Z,54.39
2023-03-28T20:35:18.129Z,54.49
2023-03-28T20:36:18.039Z,54.68
2023-03-28T20:37:18.012Z,54.21
2023-03-28T20:38:17.982Z,54.39
2023-03-28T20:39:17.975Z,53.92
2023-03-28T20:40:17.968Z,54.49
2023-03-28T20:41:17.948Z,53.92
2023-03-28T20:42:17.921Z,54.11
2023-03-28T20:43:17.930Z,53.73
2023-03-28T20:44:17.915Z,53.73
2023-03-28T20:45:17.880Z,53.83
2023-03-28T20:46:17.955Z,53.73
2023-03-28T20:47:17.849Z,53.73
2023-03-28T20:48:17.827Z,54.49
2023-03-28T20:49:17.820Z,54.30
2023-03-28T20:50:17.789Z,54.39
2023-03-28T20:51:17.770Z,54.49
2023-03-28T20:52:17.748Z,54.21
2023-03-28T20:53:17.736Z,54.58
2023-03-28T20:54:17.727Z,54.21
2023-03-28T20:55:17.712Z,54.78
2023-03-28T20:56:17.688Z,54.87
2023-03-28T20:57:17.712Z,54.97
2023-03-28T20:58:17.664Z,54.78
2023-03-28T20:59:17.651Z,54.97
2023-03-28T21:00:17.702Z,54.87
2023-03-28T21:01:17.675Z,54.78
2023-03-28T21:02:17.600Z,54.87
2023-03-28T21:03:17.575Z,54.78
2023-03-28T21:04:17.556Z,54.78
2023-03-28T21:05:17.564Z,54.58
2023-03-28T21:06:17.518Z,54.49
2023-03-28T21:07:17.507Z,54.49
2023-03-28T21:08:17.491Z,54.58
2023-03-28T21:09:17.488Z,54.58
2023-03-28T21:10:17.454Z,54.80
2023-03-28T21:11:17.437Z,54.71
2023-03-28T21:12:17.423Z,54.49
2023-03-28T21:13:17.401Z,54.61
2023-03-28T21:14:17.379Z,54.90
2023-03-28T21:15:17.366Z,54.80
2023-03-28T21:16:17.414Z,54.52
2023-03-28T21:17:17.367Z,54.61
2023-03-28T21:18:17.316Z,54.61
2023-03-28T21:19:17.314Z,54.52
2023-03-28T21:20:17.321Z,54.80
2023-03-28T21:21:17.273Z,54.71
2023-03-28T21:22:17.248Z,54.52
2023-03-28T21:23:17.230Z,54.71
2023-03-28T21:24:17.212Z,54.80
2023-03-28T21:25:17.204Z,54.61
2023-03-28T21:26:17.176Z,54.80
2023-03-28T21:27:17.173Z,54.61
2023-03-28T21:28:17.141Z,54.61
2023-03-28T21:29:17.149Z,54.71
2023-03-28T21:30:17.107Z,54.71
2023-03-28T21:31:17.161Z,54.80
2023-03-28T21:32:17.171Z,54.80
2023-03-28T21:33:17.062Z,54.80
2023-03-28T21:34:17.054Z,54.61
2023-03-28T21:35:17.032Z,54.71
2023-03-28T21:36:17.049Z,54.61
2023-03-28T21:37:17.008Z,54.52
2023-03-28T21:38:16.979Z,54.71
2023-03-28T21:39:16.962Z,54.71
2023-03-28T21:40:16.947Z,54.61
2023-03-28T21:41:16.957Z,54.61
2023-03-28T21:42:16.903Z,54.61
2023-03-28T21:43:16.915Z,54.61
2023-03-28T21:44:16.877Z,54.80
2023-03-28T21:45:16.859Z,54.61
2023-03-28T21:46:16.863Z,54.80
2023-03-28T21:47:16.828Z,54.99
2023-03-28T21:48:16.818Z,55.09
2023-03-28T21:49:16.791Z,54.80
2023-03-28T21:50:16.771Z,54.80
2023-03-28T21:51:16.763Z,54.99
2023-03-28T21:52:16.741Z,54.90
2023-03-28T21:53:16.728Z,54.61
2023-03-28T21:54:16.704Z,54.80
2023-03-28T21:55:16.706Z,55.37
2023-03-28T21:56:16.786Z,55.09
2023-03-28T21:57:16.718Z,55.18
2023-03-28T21:58:16.638Z,55.28
2023-03-28T21:59:16.629Z,55.37
2023-03-28T22:00:16.614Z,55.37
2023-03-28T22:01:16.605Z,55.47
2023-03-28T22:02:16.609Z,55.57
2023-03-28T22:03:16.621Z,55.47
2023-03-28T22:04:16.605Z,55.47
2023-03-28T22:05:28.746Z,55.47
2023-03-28T22:06:16.533Z,55.47
2023-03-28T22:07:16.489Z,55.25
2023-03-28T22:08:16.472Z,55.16
2023-03-28T22:09:16.456Z,55.44
2023-03-28T22:10:16.473Z,55.63
2023-03-28T22:11:16.433Z,55.63
2023-03-28T22:12:16.412Z,56.01
2023-03-28T22:13:16.397Z,56.20
2023-03-28T22:14:16.381Z,56.10
2023-03-28T22:15:16.353Z,56.29
2023-03-28T22:16:16.400Z,56.68
2023-03-28T22:17:16.329Z,56.49
2023-03-28T22:18:16.311Z,56.68
2023-03-28T22:19:16.294Z,56.77
2023-03-28T22:20:16.273Z,56.87
2023-03-28T22:21:16.255Z,56.87
2023-03-28T22:22:16.241Z,56.87
2023-03-28T22:23:16.220Z,56.84
2023-03-28T22:24:16.214Z,56.65
2023-03-28T22:25:16.209Z,57.12
2023-03-28T22:26:16.187Z,56.84
2023-03-28T22:27:16.172Z,56.84
2023-03-28T22:28:16.137Z,56.84
2023-03-28T22:29:16.124Z,57.50
2023-03-28T22:30:16.104Z,57.31
2023-03-28T22:31:16.172Z,57.12
2023-03-28T22:32:16.079Z,57.12
2023-03-28T22:33:16.058Z,57.79
2023-03-28T22:34:16.041Z,57.50
2023-03-28T22:35:16.024Z,57.40
2023-03-28T22:36:16.042Z,57.50
2023-03-28T22:37:15.986Z,57.21
2023-03-28T22:38:15.972Z,57.98
2023-03-28T22:39:15.950Z,57.59
2023-03-28T22:40:15.959Z,58.07
2023-03-28T22:41:15.926Z,58.26
2023-03-28T22:42:15.912Z,58.07
2023-03-28T22:43:15.912Z,58.26
2023-03-28T22:44:15.873Z,58.17
2023-03-28T22:45:15.853Z,57.98
2023-03-28T22:46:15.861Z,57.98
2023-03-28T22:47:15.814Z,58.26
2023-03-28T22:48:15.810Z,58.07
2023-03-28T22:49:15.781Z,57.98
2023-03-28T22:50:15.771Z,58.36
2023-03-28T22:51:15.871Z,58.64
2023-03-28T22:52:15.744Z,58.73
2023-03-28T22:53:15.715Z,58.64
2023-03-28T22:54:15.699Z,58.54
2023-03-28T22:56:25.405Z,58.92
2023-03-28T22:58:20.338Z,59.11
2023-03-28T22:59:20.293Z,58.64
2023-03-28T23:01:24.993Z,58.54
2023-03-28T23:02:24.962Z,58.64
2023-03-28T23:04:29.679Z,59.11
2023-03-28T23:05:29.698Z,58.73
